Stone Cabin, Nevada Weather observations

Data are for observation ending at time listed.
 Day   Time    Ave.   Ave.  Ave.  Vector   Max.   Stn.    Total    Solar   Ave.  
  of    of     Air    Rel.  Wind   Wind    Wind   Baro.  Precip.   Rad.    Soil  
Year   Day     Temp.  Hum.  Speed  Dir.    Gust   Pres.                    Temp. 
2014   (PST)    F      %     mph   deg.    mph     mb.     in.     W/m2     F   
------------------------------------------------------------------------------
 326   23:00   33.8    64    2.4   353      7.9    822     0.00       0    41.0
 327    0:00   32.9    57    1.9   359      6.4    822     0.00       0    40.2
 327    1:00   33.5    53    4.0    28      9.2    823     0.00       0    39.5
 327    2:00   30.0    55    2.7     8      9.4    825     0.00       0    39.1
 327    3:00   23.8    66    0.8   310      5.7    826     0.00       0    38.5
 327    4:00   19.5    74    0.5   268      3.1    825     0.00       0    37.7
 327    5:00   25.6    64    2.9    31      8.8    827     0.00       0    36.9
 327    6:00   24.1    64    1.4   360      3.4    827     0.00       0    36.5
 327    7:00   25.2    62    2.2    29      7.9    828     0.00       5    36.0
 327    8:00   25.5    62    0.9   244      3.0    829     0.00      55    35.7
 327    9:00   33.2    46    1.4   318      4.6    829     0.00     170    35.9
 327   10:00   38.6    32    2.7    68      6.3    829     0.00     281    36.7
 327   11:00   40.5    30    2.5   162      6.3    828     0.00     503    38.2
 327   12:00   43.1    27    2.8   156      8.3    828     0.00     557    40.4
 327   13:00   44.4    24    2.4   137      5.8    827     0.00     518    42.3
 327   14:00   46.0    22    2.9   121      6.6    824     0.00     446    43.4
 327   15:00   45.4    22    1.9   118      5.8    822     0.00     201    43.7
 327   16:00   42.7    26    1.6   114      4.2    822     0.00      75    43.2
 327   17:00   37.3    32    0.4   126      2.3    823     0.00       6    42.3
 327   18:00   35.4    33    1.3   262      5.9    824     0.00       0    41.1
 327   19:00   32.9    36    2.6   332      9.0    825     0.00       0    40.1
 327   20:00   29.4    41    1.0   327      3.4    827     0.00       0    39.4
 327   21:00   24.8    44    1.9   315      4.0    828     0.00       0    38.7
 327   22:00   21.5    48    2.1   319      4.8    828     0.00       0    37.8

Return to Stone Cabin, Nevada graphs page.


Western Regional Climate Center,wrcc@dri.edu